sensor_id;sensor_type;location;lat;lon;timestamp;temperature;humidity
57652;DHT22;43480;53.116;6.734;2024-02-23T00:02:18;5.10;99.90
57652;DHT22;43480;53.116;6.734;2024-02-23T00:04:44;5.10;99.90
57652;DHT22;43480;53.116;6.734;2024-02-23T00:07:10;5.10;99.90
57652;DHT22;43480;53.116;6.734;2024-02-23T00:09:36;5.10;99.90
57652;DHT22;43480;53.116;6.734;2024-02-23T00:12:02;5.00;99.90
57652;DHT22;43480;53.116;6.734;2024-02-23T00:14:29;5.00;99.90
57652;DHT22;43480;53.116;6.734;2024-02-23T00:16:56;5.10;99.90
57652;DHT22;43480;53.116;6.734;2024-02-23T00:19:23;5.10;99.90
57652;DHT22;43480;53.116;6.734;2024-02-23T00:21:49;5.00;99.90
57652;DHT22;43480;53.116;6.734;2024-02-23T00:24:16;5.10;99.90
57652;DHT22;43480;53.116;6.734;2024-02-23T00:26:43;5.10;99.90
57652;DHT22;43480;53.116;6.734;2024-02-23T00:29:09;5.10;99.90
57652;DHT22;43480;53.116;6.734;2024-02-23T00:31:37;5.20;99.90
57652;DHT22;43480;53.116;6.734;2024-02-23T00:34:03;5.20;99.90
57652;DHT22;43480;53.116;6.734;2024-02-23T00:36:28;5.20;99.90
57652;DHT22;43480;53.116;6.734;2024-02-23T00:38:54;5.20;99.90
57652;DHT22;43480;53.116;6.734;2024-02-23T00:41:20;5.30;99.90
57652;DHT22;43480;53.116;6.734;2024-02-23T00:43:46;5.30;99.90
57652;DHT22;43480;53.116;6.734;2024-02-23T00:46:13;5.30;99.90
57652;DHT22;43480;53.116;6.734;2024-02-23T00:48:40;5.20;99.90
57652;DHT22;43480;53.116;6.734;2024-02-23T00:51:05;5.20;99.90
57652;DHT22;43480;53.116;6.734;2024-02-23T00:53:32;5.20;99.90
57652;DHT22;43480;53.116;6.734;2024-02-23T00:55:58;5.20;99.90
57652;DHT22;43480;53.116;6.734;2024-02-23T00:58:24;5.20;99.90
57652;DHT22;43480;53.116;6.734;2024-02-23T01:00:50;5.20;99.90
57652;DHT22;43480;53.116;6.734;2024-02-23T01:03:15;5.10;99.90
57652;DHT22;43480;53.116;6.734;2024-02-23T01:05:41;5.00;99.90
57652;DHT22;43480;53.116;6.734;2024-02-23T01:08:08;5.00;99.90
57652;DHT22;43480;53.116;6.734;2024-02-23T01:10:34;5.00;99.90
57652;DHT22;43480;53.116;6.734;2024-02-23T01:13:00;5.00;99.90
57652;DHT22;43480;53.116;6.734;2024-02-23T01:15:25;5.00;99.90
57652;DHT22;43480;53.116;6.734;2024-02-23T01:17:51;4.90;99.90
57652;DHT22;43480;53.116;6.734;2024-02-23T01:20:16;4.90;99.90
57652;DHT22;43480;53.116;6.734;2024-02-23T01:22:43;4.80;99.90
57652;DHT22;43480;53.116;6.734;2024-02-23T01:25:08;4.70;99.90
57652;DHT22;43480;53.116;6.734;2024-02-23T01:27:34;4.50;99.90
57652;DHT22;43480;53.116;6.734;2024-02-23T01:30:00;4.50;99.90
57652;DHT22;43480;53.116;6.734;2024-02-23T01:32:25;4.50;99.90
57652;DHT22;43480;53.116;6.734;2024-02-23T01:34:51;4.50;99.90
57652;DHT22;43480;53.116;6.734;2024-02-23T01:37:17;4.50;99.90
57652;DHT22;43480;53.116;6.734;2024-02-23T01:39:43;4.40;99.90
57652;DHT22;43480;53.116;6.734;2024-02-23T01:42:09;4.40;99.90
57652;DHT22;43480;53.116;6.734;2024-02-23T01:44:35;4.40;99.90
57652;DHT22;43480;53.116;6.734;2024-02-23T01:47:00;4.40;99.90
57652;DHT22;43480;53.116;6.734;2024-02-23T01:49:26;4.40;99.90
57652;DHT22;43480;53.116;6.734;2024-02-23T01:51:57;4.40;99.90
57652;DHT22;43480;53.116;6.734;2024-02-23T01:54:23;4.40;99.90
57652;DHT22;43480;53.116;6.734;2024-02-23T01:56:50;4.40;99.90
57652;DHT22;43480;53.116;6.734;2024-02-23T01:59:16;4.50;99.90
57652;DHT22;43480;53.116;6.734;2024-02-23T02:01:45;4.60;99.90
57652;DHT22;43480;53.116;6.734;2024-02-23T02:04:11;4.70;99.90
57652;DHT22;43480;53.116;6.734;2024-02-23T02:06:37;4.70;99.90
57652;DHT22;43480;53.116;6.734;2024-02-23T02:09:03;4.70;99.90
57652;DHT22;43480;53.116;6.734;2024-02-23T02:11:28;4.80;99.90
57652;DHT22;43480;53.116;6.734;2024-02-23T02:13:54;4.80;99.90
57652;DHT22;43480;53.116;6.734;2024-02-23T02:16:20;4.80;99.90
57652;DHT22;43480;53.116;6.734;2024-02-23T02:18:45;4.90;99.90
57652;DHT22;43480;53.116;6.734;2024-02-23T02:21:11;4.90;99.90
57652;DHT22;43480;53.116;6.734;2024-02-23T02:23:37;5.00;99.90
57652;DHT22;43480;53.116;6.734;2024-02-23T02:26:03;5.00;99.90
57652;DHT22;43480;53.116;6.734;2024-02-23T02:28:29;5.00;99.90
57652;DHT22;43480;53.116;6.734;2024-02-23T02:30:55;5.00;99.90
57652;DHT22;43480;53.116;6.734;2024-02-23T02:33:21;5.10;99.90
57652;DHT22;43480;53.116;6.734;2024-02-23T02:35:48;5.20;99.90
57652;DHT22;43480;53.116;6.734;2024-02-23T02:38:15;5.20;99.90
57652;DHT22;43480;53.116;6.734;2024-02-23T02:40:40;5.30;99.90
57652;DHT22;43480;53.116;6.734;2024-02-23T02:43:06;5.30;99.90
57652;DHT22;43480;53.116;6.734;2024-02-23T02:45:32;5.30;99.90
57652;DHT22;43480;53.116;6.734;2024-02-23T02:48:00;5.40;99.90
57652;DHT22;43480;53.116;6.734;2024-02-23T02:50:27;5.50;99.90
57652;DHT22;43480;53.116;6.734;2024-02-23T02:52:52;5.60;99.90
57652;DHT22;43480;53.116;6.734;2024-02-23T02:55:18;5.60;99.90
57652;DHT22;43480;53.116;6.734;2024-02-23T02:57:44;5.70;99.90
57652;DHT22;43480;53.116;6.734;2024-02-23T03:00:11;5.70;99.90
57652;DHT22;43480;53.116;6.734;2024-02-23T03:02:37;5.70;99.90
57652;DHT22;43480;53.116;6.734;2024-02-23T03:05:03;5.80;99.90
57652;DHT22;43480;53.116;6.734;2024-02-23T03:07:29;5.80;99.90
57652;DHT22;43480;53.116;6.734;2024-02-23T03:09:55;5.80;99.90
57652;DHT22;43480;53.116;6.734;2024-02-23T03:12:21;5.80;99.90
57652;DHT22;43480;53.116;6.734;2024-02-23T03:14:47;5.80;99.90
57652;DHT22;43480;53.116;6.734;2024-02-23T03:17:12;5.80;99.90
57652;DHT22;43480;53.116;6.734;2024-02-23T03:19:38;5.90;99.90
57652;DHT22;43480;53.116;6.734;2024-02-23T03:22:04;5.90;99.90
57652;DHT22;43480;53.116;6.734;2024-02-23T03:24:30;5.90;99.90
57652;DHT22;43480;53.116;6.734;2024-02-23T03:26:56;5.90;99.90
57652;DHT22;43480;53.116;6.734;2024-02-23T03:29:22;5.80;99.90
57652;DHT22;43480;53.116;6.734;2024-02-23T03:31:55;5.80;99.90
57652;DHT22;43480;53.116;6.734;2024-02-23T03:34:20;5.80;99.90
57652;DHT22;43480;53.116;6.734;2024-02-23T03:36:46;5.80;99.90
57652;DHT22;43480;53.116;6.734;2024-02-23T03:39:12;5.70;99.90
57652;DHT22;43480;53.116;6.734;2024-02-23T03:41:38;5.70;99.90
57652;DHT22;43480;53.116;6.734;2024-02-23T03:44:04;5.70;99.90
57652;DHT22;43480;53.116;6.734;2024-02-23T03:46:29;5.70;99.90
57652;DHT22;43480;53.116;6.734;2024-02-23T03:48:56;5.80;99.90
57652;DHT22;43480;53.116;6.734;2024-02-23T03:51:22;5.70;99.90
57652;DHT22;43480;53.116;6.734;2024-02-23T03:53:47;5.70;99.90
57652;DHT22;43480;53.116;6.734;2024-02-23T03:56:13;5.70;99.90
57652;DHT22;43480;53.116;6.734;2024-02-23T03:58:39;5.60;99.90
57652;DHT22;43480;53.116;6.734;2024-02-23T04:01:04;5.60;99.90
57652;DHT22;43480;53.116;6.734;2024-02-23T04:03:30;5.70;99.90
57652;DHT22;43480;53.116;6.734;2024-02-23T04:05:56;5.60;99.90
57652;DHT22;43480;53.116;6.734;2024-02-23T04:08:21;5.60;99.90
57652;DHT22;43480;53.116;6.734;2024-02-23T04:10:47;5.70;99.90
57652;DHT22;43480;53.116;6.734;2024-02-23T04:13:12;5.60;99.90
57652;DHT22;43480;53.116;6.734;2024-02-23T04:15:43;5.60;99.90
57652;DHT22;43480;53.116;6.734;2024-02-23T04:18:09;5.50;99.90
57652;DHT22;43480;53.116;6.734;2024-02-23T04:20:35;5.50;99.90
57652;DHT22;43480;53.116;6.734;2024-02-23T04:23:00;5.40;99.90
57652;DHT22;43480;53.116;6.734;2024-02-23T04:25:26;5.40;99.90
57652;DHT22;43480;53.116;6.734;2024-02-23T04:27:52;5.40;99.90
57652;DHT22;43480;53.116;6.734;2024-02-23T04:30:18;5.40;99.90
57652;DHT22;43480;53.116;6.734;2024-02-23T04:32:43;5.40;99.90
57652;DHT22;43480;53.116;6.734;2024-02-23T04:35:09;5.40;99.90
57652;DHT22;43480;53.116;6.734;2024-02-23T04:37:35;5.40;99.90
57652;DHT22;43480;53.116;6.734;2024-02-23T04:40:01;5.50;99.90
57652;DHT22;43480;53.116;6.734;2024-02-23T04:42:27;5.40;99.90
57652;DHT22;43480;53.116;6.734;2024-02-23T04:44:53;5.40;99.90
57652;DHT22;43480;53.116;6.734;2024-02-23T04:47:20;5.40;99.90
57652;DHT22;43480;53.116;6.734;2024-02-23T04:49:46;5.40;99.90
57652;DHT22;43480;53.116;6.734;2024-02-23T04:52:12;5.40;99.90
57652;DHT22;43480;53.116;6.734;2024-02-23T04:54:37;5.40;99.90
57652;DHT22;43480;53.116;6.734;2024-02-23T04:57:03;5.30;99.90
57652;DHT22;43480;53.116;6.734;2024-02-23T04:59:29;5.30;99.90
57652;DHT22;43480;53.116;6.734;2024-02-23T05:01:57;5.20;99.90
57652;DHT22;43480;53.116;6.734;2024-02-23T05:04:23;5.20;99.90
57652;DHT22;43480;53.116;6.734;2024-02-23T05:06:48;5.20;99.90
57652;DHT22;43480;53.116;6.734;2024-02-23T05:09:14;5.10;99.90
57652;DHT22;43480;53.116;6.734;2024-02-23T05:11:39;5.10;99.90
57652;DHT22;43480;53.116;6.734;2024-02-23T05:14:05;5.10;99.90
57652;DHT22;43480;53.116;6.734;2024-02-23T05:16:31;5.10;99.90
57652;DHT22;43480;53.116;6.734;2024-02-23T05:18:57;5.10;99.90
57652;DHT22;43480;53.116;6.734;2024-02-23T05:21:23;5.10;99.90
57652;DHT22;43480;53.116;6.734;2024-02-23T05:23:49;5.10;99.90
57652;DHT22;43480;53.116;6.734;2024-02-23T05:26:15;5.10;99.90
57652;DHT22;43480;53.116;6.734;2024-02-23T05:28:40;5.20;99.90
57652;DHT22;43480;53.116;6.734;2024-02-23T05:31:07;5.10;99.90
57652;DHT22;43480;53.116;6.734;2024-02-23T05:33:34;5.10;99.90
57652;DHT22;43480;53.116;6.734;2024-02-23T05:36:00;5.10;99.90
57652;DHT22;43480;53.116;6.734;2024-02-23T05:38:26;5.00;99.90
57652;DHT22;43480;53.116;6.734;2024-02-23T05:40:51;5.00;99.90
57652;DHT22;43480;53.116;6.734;2024-02-23T05:43:17;4.90;99.90
57652;DHT22;43480;53.116;6.734;2024-02-23T05:45:42;4.90;99.90
57652;DHT22;43480;53.116;6.734;2024-02-23T05:48:09;4.90;99.90
57652;DHT22;43480;53.116;6.734;2024-02-23T05:50:35;4.90;99.90
57652;DHT22;43480;53.116;6.734;2024-02-23T05:53:00;5.00;99.90
57652;DHT22;43480;53.116;6.734;2024-02-23T05:55:26;5.00;99.90
57652;DHT22;43480;53.116;6.734;2024-02-23T05:57:52;5.00;99.90
57652;DHT22;43480;53.116;6.734;2024-02-23T06:00:18;5.00;99.90
57652;DHT22;43480;53.116;6.734;2024-02-23T06:02:47;5.10;99.90
57652;DHT22;43480;53.116;6.734;2024-02-23T06:05:13;5.10;99.90
57652;DHT22;43480;53.116;6.734;2024-02-23T06:07:39;5.10;99.90
57652;DHT22;43480;53.116;6.734;2024-02-23T06:10:06;5.00;99.90
57652;DHT22;43480;53.116;6.734;2024-02-23T06:12:31;5.00;99.90
57652;DHT22;43480;53.116;6.734;2024-02-23T06:14:57;4.90;99.90
57652;DHT22;43480;53.116;6.734;2024-02-23T06:17:24;4.90;99.90
57652;DHT22;43480;53.116;6.734;2024-02-23T06:19:49;4.90;99.90
57652;DHT22;43480;53.116;6.734;2024-02-23T06:22:16;4.90;99.90
57652;DHT22;43480;53.116;6.734;2024-02-23T06:24:49;4.90;99.90
57652;DHT22;43480;53.116;6.734;2024-02-23T06:27:14;4.80;99.90
57652;DHT22;43480;53.116;6.734;2024-02-23T06:29:40;4.80;99.90
57652;DHT22;43480;53.116;6.734;2024-02-23T06:32:06;4.80;99.90
57652;DHT22;43480;53.116;6.734;2024-02-23T06:34:32;4.80;99.90
57652;DHT22;43480;53.116;6.734;2024-02-23T06:36:57;4.70;99.90
57652;DHT22;43480;53.116;6.734;2024-02-23T06:39:23;4.70;99.90
57652;DHT22;43480;53.116;6.734;2024-02-23T06:41:49;4.70;99.90
57652;DHT22;43480;53.116;6.734;2024-02-23T06:44:15;4.70;99.90
57652;DHT22;43480;53.116;6.734;2024-02-23T06:46:40;4.70;99.90
57652;DHT22;43480;53.116;6.734;2024-02-23T06:49:07;4.70;99.90
57652;DHT22;43480;53.116;6.734;2024-02-23T06:51:33;4.70;99.90
57652;DHT22;43480;53.116;6.734;2024-02-23T06:53:58;4.70;99.90
57652;DHT22;43480;53.116;6.734;2024-02-23T06:56:24;4.70;99.90
57652;DHT22;43480;53.116;6.734;2024-02-23T06:58:50;4.80;99.90
57652;DHT22;43480;53.116;6.734;2024-02-23T07:01:15;4.80;99.90
57652;DHT22;43480;53.116;6.734;2024-02-23T07:03:41;4.80;99.90
57652;DHT22;43480;53.116;6.734;2024-02-23T07:06:08;4.80;99.90
57652;DHT22;43480;53.116;6.734;2024-02-23T07:08:37;4.80;99.90
57652;DHT22;43480;53.116;6.734;2024-02-23T07:11:03;4.80;99.90
57652;DHT22;43480;53.116;6.734;2024-02-23T07:13:29;4.80;99.90
57652;DHT22;43480;53.116;6.734;2024-02-23T07:16:00;4.80;99.90
57652;DHT22;43480;53.116;6.734;2024-02-23T07:18:26;4.90;99.90
57652;DHT22;43480;53.116;6.734;2024-02-23T07:20:51;5.00;99.90
57652;DHT22;43480;53.116;6.734;2024-02-23T07:23:17;5.00;99.90
57652;DHT22;43480;53.116;6.734;2024-02-23T07:25:43;5.10;99.90
57652;DHT22;43480;53.116;6.734;2024-02-23T07:28:08;5.10;99.90
57652;DHT22;43480;53.116;6.734;2024-02-23T07:30:34;5.10;99.90
57652;DHT22;43480;53.116;6.734;2024-02-23T07:33:03;5.10;99.90
57652;DHT22;43480;53.116;6.734;2024-02-23T07:35:28;5.10;99.90
57652;DHT22;43480;53.116;6.734;2024-02-23T07:37:55;5.20;99.90
57652;DHT22;43480;53.116;6.734;2024-02-23T07:40:21;5.30;99.90
57652;DHT22;43480;53.116;6.734;2024-02-23T07:42:46;5.30;99.90
57652;DHT22;43480;53.116;6.734;2024-02-23T07:45:12;5.40;99.90
57652;DHT22;43480;53.116;6.734;2024-02-23T07:47:38;5.40;99.90
57652;DHT22;43480;53.116;6.734;2024-02-23T07:50:04;5.30;99.90
57652;DHT22;43480;53.116;6.734;2024-02-23T07:52:30;5.40;99.90
57652;DHT22;43480;53.116;6.734;2024-02-23T07:54:55;5.30;99.90
57652;DHT22;43480;53.116;6.734;2024-02-23T07:57:21;5.30;99.90
57652;DHT22;43480;53.116;6.734;2024-02-23T07:59:47;5.30;99.90
57652;DHT22;43480;53.116;6.734;2024-02-23T08:02:14;5.30;99.90
57652;DHT22;43480;53.116;6.734;2024-02-23T08:04:40;5.40;99.90
57652;DHT22;43480;53.116;6.734;2024-02-23T08:07:06;5.40;99.90
57652;DHT22;43480;53.116;6.734;2024-02-23T08:09:32;5.50;99.90
57652;DHT22;43480;53.116;6.734;2024-02-23T08:11:58;5.60;99.90
57652;DHT22;43480;53.116;6.734;2024-02-23T08:14:23;5.70;99.90
57652;DHT22;43480;53.116;6.734;2024-02-23T08:16:49;5.70;99.90
57652;DHT22;43480;53.116;6.734;2024-02-23T08:19:15;5.80;99.90
57652;DHT22;43480;53.116;6.734;2024-02-23T08:21:41;5.80;99.90
57652;DHT22;43480;53.116;6.734;2024-02-23T08:24:07;5.90;99.90
57652;DHT22;43480;53.116;6.734;2024-02-23T08:26:33;5.90;99.90
57652;DHT22;43480;53.116;6.734;2024-02-23T08:28:59;5.90;99.90
57652;DHT22;43480;53.116;6.734;2024-02-23T08:31:25;5.90;99.90
57652;DHT22;43480;53.116;6.734;2024-02-23T08:33:50;5.90;99.90
57652;DHT22;43480;53.116;6.734;2024-02-23T08:36:16;6.00;99.90
57652;DHT22;43480;53.116;6.734;2024-02-23T08:38:42;6.00;99.90
57652;DHT22;43480;53.116;6.734;2024-02-23T08:41:07;6.00;99.90
57652;DHT22;43480;53.116;6.734;2024-02-23T08:43:34;6.10;99.90
57652;DHT22;43480;53.116;6.734;2024-02-23T08:45:59;6.10;99.90
57652;DHT22;43480;53.116;6.734;2024-02-23T08:48:25;6.20;99.90
57652;DHT22;43480;53.116;6.734;2024-02-23T08:50:51;6.20;99.90
57652;DHT22;43480;53.116;6.734;2024-02-23T08:53:17;6.20;99.90
57652;DHT22;43480;53.116;6.734;2024-02-23T08:55:43;6.30;99.90
57652;DHT22;43480;53.116;6.734;2024-02-23T08:58:08;6.30;99.90
57652;DHT22;43480;53.116;6.734;2024-02-23T09:00:35;6.40;99.90
57652;DHT22;43480;53.116;6.734;2024-02-23T09:03:02;6.30;99.90
57652;DHT22;43480;53.116;6.734;2024-02-23T09:05:28;6.40;99.90
57652;DHT22;43480;53.116;6.734;2024-02-23T09:07:54;6.40;99.90
57652;DHT22;43480;53.116;6.734;2024-02-23T09:10:20;6.40;99.90
57652;DHT22;43480;53.116;6.734;2024-02-23T09:12:46;6.40;99.90
57652;DHT22;43480;53.116;6.734;2024-02-23T09:15:12;6.40;99.90
57652;DHT22;43480;53.116;6.734;2024-02-23T09:17:40;6.50;99.90
57652;DHT22;43480;53.116;6.734;2024-02-23T09:20:06;6.50;99.90
57652;DHT22;43480;53.116;6.734;2024-02-23T09:22:32;6.50;99.90
57652;DHT22;43480;53.116;6.734;2024-02-23T09:24:58;6.60;99.90
57652;DHT22;43480;53.116;6.734;2024-02-23T09:27:24;6.70;99.90
57652;DHT22;43480;53.116;6.734;2024-02-23T09:29:49;6.80;99.90
57652;DHT22;43480;53.116;6.734;2024-02-23T09:32:15;6.80;99.90
57652;DHT22;43480;53.116;6.734;2024-02-23T09:34:41;7.00;99.90
57652;DHT22;43480;53.116;6.734;2024-02-23T09:37:06;7.10;99.90
57652;DHT22;43480;53.116;6.734;2024-02-23T09:39:32;7.20;99.90
57652;DHT22;43480;53.116;6.734;2024-02-23T09:41:58;7.20;99.90
57652;DHT22;43480;53.116;6.734;2024-02-23T09:44:32;7.30;99.90
57652;DHT22;43480;53.116;6.734;2024-02-23T09:47:04;7.30;99.90
57652;DHT22;43480;53.116;6.734;2024-02-23T09:49:40;7.30;99.90
57652;DHT22;43480;53.116;6.734;2024-02-23T09:52:07;7.30;99.90
57652;DHT22;43480;53.116;6.734;2024-02-23T09:54:37;7.30;99.90
57652;DHT22;43480;53.116;6.734;2024-02-23T09:57:09;7.30;99.90
57652;DHT22;43480;53.116;6.734;2024-02-23T09:59:36;7.30;99.90
57652;DHT22;43480;53.116;6.734;2024-02-23T10:02:14;7.30;99.90
57652;DHT22;43480;53.116;6.734;2024-02-23T10:04:42;7.40;99.90
57652;DHT22;43480;53.116;6.734;2024-02-23T10:07:14;7.40;99.90
57652;DHT22;43480;53.116;6.734;2024-02-23T10:09:41;7.50;99.90
57652;DHT22;43480;53.116;6.734;2024-02-23T10:12:07;7.60;99.90
57652;DHT22;43480;53.116;6.734;2024-02-23T10:14:33;7.60;99.90
57652;DHT22;43480;53.116;6.734;2024-02-23T10:16:58;7.70;99.90
57652;DHT22;43480;53.116;6.734;2024-02-23T10:19:25;7.70;99.90
57652;DHT22;43480;53.116;6.734;2024-02-23T10:21:54;7.80;99.90
57652;DHT22;43480;53.116;6.734;2024-02-23T10:24:20;7.80;99.90
57652;DHT22;43480;53.116;6.734;2024-02-23T10:26:46;7.90;99.90
57652;DHT22;43480;53.116;6.734;2024-02-23T10:29:12;7.80;99.90
57652;DHT22;43480;53.116;6.734;2024-02-23T10:31:38;7.90;99.90
57652;DHT22;43480;53.116;6.734;2024-02-23T10:34:08;7.80;99.90
57652;DHT22;43480;53.116;6.734;2024-02-23T10:36:42;7.80;99.90
57652;DHT22;43480;53.116;6.734;2024-02-23T10:39:09;7.80;99.90
57652;DHT22;43480;53.116;6.734;2024-02-23T10:41:36;7.60;99.90
57652;DHT22;43480;53.116;6.734;2024-02-23T10:44:05;7.60;99.90
57652;DHT22;43480;53.116;6.734;2024-02-23T10:46:32;7.50;99.90
57652;DHT22;43480;53.116;6.734;2024-02-23T10:48:58;7.50;99.90
57652;DHT22;43480;53.116;6.734;2024-02-23T10:51:27;7.40;99.90
57652;DHT22;43480;53.116;6.734;2024-02-23T10:53:53;7.40;99.90
57652;DHT22;43480;53.116;6.734;2024-02-23T10:56:20;7.40;99.90
57652;DHT22;43480;53.116;6.734;2024-02-23T10:58:47;7.40;99.90
57652;DHT22;43480;53.116;6.734;2024-02-23T11:01:14;7.40;99.90
57652;DHT22;43480;53.116;6.734;2024-02-23T11:03:43;7.30;99.90
57652;DHT22;43480;53.116;6.734;2024-02-23T11:06:11;7.40;99.90
57652;DHT22;43480;53.116;6.734;2024-02-23T11:08:37;7.40;99.90
57652;DHT22;43480;53.116;6.734;2024-02-23T11:11:09;7.40;99.90
57652;DHT22;43480;53.116;6.734;2024-02-23T11:13:39;7.40;99.90
57652;DHT22;43480;53.116;6.734;2024-02-23T11:16:06;7.40;99.90
57652;DHT22;43480;53.116;6.734;2024-02-23T11:18:34;7.50;99.90
57652;DHT22;43480;53.116;6.734;2024-02-23T11:21:02;7.50;99.90
57652;DHT22;43480;53.116;6.734;2024-02-23T11:23:52;7.50;99.90
57652;DHT22;43480;53.116;6.734;2024-02-23T11:26:18;7.50;99.90
57652;DHT22;43480;53.116;6.734;2024-02-23T11:28:48;7.50;99.90
57652;DHT22;43480;53.116;6.734;2024-02-23T11:31:23;7.50;99.90
57652;DHT22;43480;53.116;6.734;2024-02-23T11:33:53;7.40;99.90
57652;DHT22;43480;53.116;6.734;2024-02-23T11:36:23;7.40;99.90
57652;DHT22;43480;53.116;6.734;2024-02-23T11:38:53;7.50;99.90
57652;DHT22;43480;53.116;6.734;2024-02-23T11:41:21;7.50;99.90
57652;DHT22;43480;53.116;6.734;2024-02-23T11:43:49;7.50;99.90
57652;DHT22;43480;53.116;6.734;2024-02-23T11:46:16;7.50;99.90
57652;DHT22;43480;53.116;6.734;2024-02-23T11:48:43;7.50;99.90
57652;DHT22;43480;53.116;6.734;2024-02-23T11:51:15;7.40;99.90
57652;DHT22;43480;53.116;6.734;2024-02-23T11:53:41;7.40;99.90
57652;DHT22;43480;53.116;6.734;2024-02-23T11:56:07;7.30;99.90
57652;DHT22;43480;53.116;6.734;2024-02-23T11:58:33;7.30;99.90
57652;DHT22;43480;53.116;6.734;2024-02-23T12:01:03;7.20;99.90
57652;DHT22;43480;53.116;6.734;2024-02-23T12:03:29;7.20;99.90
57652;DHT22;43480;53.116;6.734;2024-02-23T12:05:59;7.20;99.90
57652;DHT22;43480;53.116;6.734;2024-02-23T12:08:27;7.20;99.90
57652;DHT22;43480;53.116;6.734;2024-02-23T12:10:56;7.10;99.90
57652;DHT22;43480;53.116;6.734;2024-02-23T12:13:22;7.10;99.90
57652;DHT22;43480;53.116;6.734;2024-02-23T12:15:49;7.10;99.90
57652;DHT22;43480;53.116;6.734;2024-02-23T12:18:20;7.10;99.90
57652;DHT22;43480;53.116;6.734;2024-02-23T12:20:49;7.10;99.90
57652;DHT22;43480;53.116;6.734;2024-02-23T12:23:14;7.10;99.90
57652;DHT22;43480;53.116;6.734;2024-02-23T12:25:40;7.10;99.90
57652;DHT22;43480;53.116;6.734;2024-02-23T12:28:06;7.10;99.90
57652;DHT22;43480;53.116;6.734;2024-02-23T12:30:32;7.10;99.90
57652;DHT22;43480;53.116;6.734;2024-02-23T12:33:08;7.10;99.90
57652;DHT22;43480;53.116;6.734;2024-02-23T12:35:34;7.10;99.90
57652;DHT22;43480;53.116;6.734;2024-02-23T12:38:01;7.10;99.90
57652;DHT22;43480;53.116;6.734;2024-02-23T12:40:27;7.10;99.90
57652;DHT22;43480;53.116;6.734;2024-02-23T12:42:52;7.10;99.90
57652;DHT22;43480;53.116;6.734;2024-02-23T12:45:18;7.10;99.90
57652;DHT22;43480;53.116;6.734;2024-02-23T12:47:44;7.10;99.90
57652;DHT22;43480;53.116;6.734;2024-02-23T12:50:09;7.10;99.90
57652;DHT22;43480;53.116;6.734;2024-02-23T12:52:36;7.10;99.90
57652;DHT22;43480;53.116;6.734;2024-02-23T12:55:02;7.10;99.90
57652;DHT22;43480;53.116;6.734;2024-02-23T12:57:28;7.10;99.90
57652;DHT22;43480;53.116;6.734;2024-02-23T12:59:54;7.10;99.90
57652;DHT22;43480;53.116;6.734;2024-02-23T13:02:20;7.10;99.90
57652;DHT22;43480;53.116;6.734;2024-02-23T13:04:46;7.10;99.90
57652;DHT22;43480;53.116;6.734;2024-02-23T13:07:17;7.10;99.90
57652;DHT22;43480;53.116;6.734;2024-02-23T13:09:43;7.10;99.90
57652;DHT22;43480;53.116;6.734;2024-02-23T13:12:09;7.10;99.90
57652;DHT22;43480;53.116;6.734;2024-02-23T13:14:35;7.10;99.90
57652;DHT22;43480;53.116;6.734;2024-02-23T13:17:00;7.10;99.90
57652;DHT22;43480;53.116;6.734;2024-02-23T13:19:26;7.10;99.90
57652;DHT22;43480;53.116;6.734;2024-02-23T13:21:52;7.10;99.90
57652;DHT22;43480;53.116;6.734;2024-02-23T13:24:18;7.20;99.90
57652;DHT22;43480;53.116;6.734;2024-02-23T13:26:44;7.20;99.90
57652;DHT22;43480;53.116;6.734;2024-02-23T13:29:09;7.20;99.90
57652;DHT22;43480;53.116;6.734;2024-02-23T13:31:36;7.20;99.90
57652;DHT22;43480;53.116;6.734;2024-02-23T13:34:03;7.20;99.90
57652;DHT22;43480;53.116;6.734;2024-02-23T13:36:29;7.20;99.90
57652;DHT22;43480;53.116;6.734;2024-02-23T13:38:55;7.30;99.90
57652;DHT22;43480;53.116;6.734;2024-02-23T13:41:20;7.30;99.90
57652;DHT22;43480;53.116;6.734;2024-02-23T13:43:46;7.30;99.90
57652;DHT22;43480;53.116;6.734;2024-02-23T13:46:12;7.40;99.90
57652;DHT22;43480;53.116;6.734;2024-02-23T13:48:37;7.40;99.90
57652;DHT22;43480;53.116;6.734;2024-02-23T13:51:04;7.40;99.90
57652;DHT22;43480;53.116;6.734;2024-02-23T13:53:31;7.40;99.90
57652;DHT22;43480;53.116;6.734;2024-02-23T13:55:57;7.40;99.90
57652;DHT22;43480;53.116;6.734;2024-02-23T13:58:23;7.40;99.90
57652;DHT22;43480;53.116;6.734;2024-02-23T14:00:49;7.40;99.90
57652;DHT22;43480;53.116;6.734;2024-02-23T14:03:18;7.40;99.90
57652;DHT22;43480;53.116;6.734;2024-02-23T14:05:44;7.40;99.90
57652;DHT22;43480;53.116;6.734;2024-02-23T14:08:11;7.40;99.90
57652;DHT22;43480;53.116;6.734;2024-02-23T14:10:37;7.40;99.90
57652;DHT22;43480;53.116;6.734;2024-02-23T14:13:02;7.50;99.90
57652;DHT22;43480;53.116;6.734;2024-02-23T14:15:28;7.50;99.90
57652;DHT22;43480;53.116;6.734;2024-02-23T14:17:54;7.50;99.90
57652;DHT22;43480;53.116;6.734;2024-02-23T14:20:20;7.50;99.90
57652;DHT22;43480;53.116;6.734;2024-02-23T14:22:45;7.40;99.90
57652;DHT22;43480;53.116;6.734;2024-02-23T14:25:11;7.40;99.90
57652;DHT22;43480;53.116;6.734;2024-02-23T14:27:37;7.40;99.90
57652;DHT22;43480;53.116;6.734;2024-02-23T14:30:03;7.40;99.90
57652;DHT22;43480;53.116;6.734;2024-02-23T14:32:29;7.50;99.90
57652;DHT22;43480;53.116;6.734;2024-02-23T14:34:56;7.50;99.90
57652;DHT22;43480;53.116;6.734;2024-02-23T14:37:23;7.50;99.90
57652;DHT22;43480;53.116;6.734;2024-02-23T14:39:48;7.60;99.90
57652;DHT22;43480;53.116;6.734;2024-02-23T14:42:14;7.80;99.90
57652;DHT22;43480;53.116;6.734;2024-02-23T14:44:40;8.00;99.90
57652;DHT22;43480;53.116;6.734;2024-02-23T14:47:06;8.00;99.90
57652;DHT22;43480;53.116;6.734;2024-02-23T14:49:32;8.10;99.90
57652;DHT22;43480;53.116;6.734;2024-02-23T14:51:58;8.10;99.90
57652;DHT22;43480;53.116;6.734;2024-02-23T14:54:23;8.10;99.90
57652;DHT22;43480;53.116;6.734;2024-02-23T14:56:49;8.10;99.90
57652;DHT22;43480;53.116;6.734;2024-02-23T14:59:15;8.30;99.90
57652;DHT22;43480;53.116;6.734;2024-02-23T15:01:40;8.60;99.90
57652;DHT22;43480;53.116;6.734;2024-02-23T15:04:07;9.00;99.90
57652;DHT22;43480;53.116;6.734;2024-02-23T15:06:33;9.00;99.90
57652;DHT22;43480;53.116;6.734;2024-02-23T15:09:00;8.80;99.90
57652;DHT22;43480;53.116;6.734;2024-02-23T15:11:25;8.60;99.90
57652;DHT22;43480;53.116;6.734;2024-02-23T15:13:51;8.60;99.90
57652;DHT22;43480;53.116;6.734;2024-02-23T15:16:21;8.60;99.90
57652;DHT22;43480;53.116;6.734;2024-02-23T15:18:49;8.60;99.90
57652;DHT22;43480;53.116;6.734;2024-02-23T15:21:15;8.60;99.90
57652;DHT22;43480;53.116;6.734;2024-02-23T15:23:43;8.50;99.90
57652;DHT22;43480;53.116;6.734;2024-02-23T15:26:09;8.50;99.90
57652;DHT22;43480;53.116;6.734;2024-02-23T15:28:34;8.40;99.90
57652;DHT22;43480;53.116;6.734;2024-02-23T15:31:00;8.30;99.90
57652;DHT22;43480;53.116;6.734;2024-02-23T15:33:28;8.40;99.90
57652;DHT22;43480;53.116;6.734;2024-02-23T15:35:55;8.50;99.90
57652;DHT22;43480;53.116;6.734;2024-02-23T15:38:20;8.50;99.90
57652;DHT22;43480;53.116;6.734;2024-02-23T15:40:46;8.40;99.90